sensor_id;sensor_type;location;lat;lon;timestamp;P1;durP1;ratioP1;P2;durP2;ratioP2
48524;SDS011;34316;51.514;-0.178;2023-06-10T03:14:40;7.95;;;6.32;;
48524;SDS011;34316;51.514;-0.178;2023-06-10T03:16:43;7.32;;;6.38;;
48524;SDS011;34316;51.514;-0.178;2023-06-10T03:18:46;8.82;;;6.97;;
48524;SDS011;34316;51.514;-0.178;2023-06-10T03:22:53;8.95;;;5.90;;
48524;SDS011;34316;51.514;-0.178;2023-06-10T03:24:54;10.45;;;6.50;;
48524;SDS011;34316;51.514;-0.178;2023-06-10T03:27:15;10.05;;;6.15;;
48524;SDS011;34316;51.514;-0.178;2023-06-10T03:29:17;9.55;;;7.63;;
48524;SDS011;34316;51.514;-0.178;2023-06-10T03:31:19;12.90;;;9.32;;
48524;SDS011;34316;51.514;-0.178;2023-06-10T03:33:21;14.32;;;9.40;;
48524;SDS011;34316;51.514;-0.178;2023-06-10T03:35:23;11.45;;;9.25;;
48524;SDS011;34316;51.514;-0.178;2023-06-10T03:37:25;14.00;;;9.95;;
48524;SDS011;34316;51.514;-0.178;2023-06-10T03:39:26;11.70;;;8.70;;
48524;SDS011;34316;51.514;-0.178;2023-06-10T03:43:33;13.43;;;9.20;;
48524;SDS011;34316;51.514;-0.178;2023-06-10T03:45:35;10.32;;;8.85;;
48524;SDS011;34316;51.514;-0.178;2023-06-10T03:47:37;13.27;;;9.55;;
48524;SDS011;34316;51.514;-0.178;2023-06-10T03:49:42;11.80;;;9.68;;
48524;SDS011;34316;51.514;-0.178;2023-06-10T03:51:43;10.00;;;9.00;;
48524;SDS011;34316;51.514;-0.178;2023-06-10T03:53:46;15.50;;;9.75;;
48524;SDS011;34316;51.514;-0.178;2023-06-10T03:55:47;12.55;;;10.10;;
48524;SDS011;34316;51.514;-0.178;2023-06-10T03:57:49;14.55;;;9.68;;
48524;SDS011;34316;51.514;-0.178;2023-06-10T03:59:51;17.08;;;9.93;;
48524;SDS011;34316;51.514;-0.178;2023-06-10T04:01:53;12.73;;;9.60;;
48524;SDS011;34316;51.514;-0.178;2023-06-10T04:03:54;10.57;;;8.93;;
48524;SDS011;34316;51.514;-0.178;2023-06-10T04:05:56;11.18;;;9.38;;
48524;SDS011;34316;51.514;-0.178;2023-06-10T04:07:58;12.65;;;8.95;;
48524;SDS011;34316;51.514;-0.178;2023-06-10T04:10:00;12.88;;;9.23;;
48524;SDS011;34316;51.514;-0.178;2023-06-10T04:12:02;11.43;;;9.30;;
48524;SDS011;34316;51.514;-0.178;2023-06-10T04:14:07;13.00;;;9.38;;
48524;SDS011;34316;51.514;-0.178;2023-06-10T04:16:09;13.13;;;9.55;;
48524;SDS011;34316;51.514;-0.178;2023-06-10T04:18:11;11.80;;;8.68;;
48524;SDS011;34316;51.514;-0.178;2023-06-10T04:20:13;12.07;;;8.45;;
48524;SDS011;34316;51.514;-0.178;2023-06-10T04:22:15;12.43;;;8.85;;
48524;SDS011;34316;51.514;-0.178;2023-06-10T04:24:18;10.63;;;8.50;;
48524;SDS011;34316;51.514;-0.178;2023-06-10T04:26:19;11.85;;;8.35;;
48524;SDS011;34316;51.514;-0.178;2023-06-10T04:28:21;9.35;;;7.90;;
48524;SDS011;34316;51.514;-0.178;2023-06-10T04:30:41;11.18;;;9.20;;
48524;SDS011;34316;51.514;-0.178;2023-06-10T04:32:43;11.98;;;8.57;;
48524;SDS011;34316;51.514;-0.178;2023-06-10T04:34:45;13.27;;;9.48;;
48524;SDS011;34316;51.514;-0.178;2023-06-10T04:36:47;13.73;;;7.95;;
48524;SDS011;34316;51.514;-0.178;2023-06-10T04:38:49;10.00;;;8.60;;
48524;SDS011;34316;51.514;-0.178;2023-06-10T04:40:53;10.20;;;8.13;;
48524;SDS011;34316;51.514;-0.178;2023-06-10T04:42:55;10.30;;;8.30;;
48524;SDS011;34316;51.514;-0.178;2023-06-10T04:44:56;10.80;;;8.48;;
48524;SDS011;34316;51.514;-0.178;2023-06-10T04:46:59;12.27;;;8.85;;
48524;SDS011;34316;51.514;-0.178;2023-06-10T04:49:00;9.73;;;8.73;;
48524;SDS011;34316;51.514;-0.178;2023-06-10T04:51:02;13.80;;;8.63;;
48524;SDS011;34316;51.514;-0.178;2023-06-10T04:53:04;13.13;;;9.55;;
48524;SDS011;34316;51.514;-0.178;2023-06-10T04:55:07;11.13;;;9.00;;
48524;SDS011;34316;51.514;-0.178;2023-06-10T04:57:10;12.57;;;8.98;;
48524;SDS011;34316;51.514;-0.178;2023-06-10T04:59:12;12.27;;;8.93;;
48524;SDS011;34316;51.514;-0.178;2023-06-10T05:01:15;11.98;;;8.73;;
48524;SDS011;34316;51.514;-0.178;2023-06-10T05:03:17;10.55;;;9.20;;
48524;SDS011;34316;51.514;-0.178;2023-06-10T05:05:19;11.25;;;9.00;;
48524;SDS011;34316;51.514;-0.178;2023-06-10T05:07:21;13.65;;;9.18;;
48524;SDS011;34316;51.514;-0.178;2023-06-10T05:09:22;11.88;;;9.75;;
48524;SDS011;34316;51.514;-0.178;2023-06-10T05:11:24;9.52;;;8.50;;
48524;SDS011;34316;51.514;-0.178;2023-06-10T05:13:26;14.38;;;9.18;;
48524;SDS011;34316;51.514;-0.178;2023-06-10T05:15:27;12.93;;;8.88;;
48524;SDS011;34316;51.514;-0.178;2023-06-10T05:17:29;17.15;;;8.73;;
48524;SDS011;34316;51.514;-0.178;2023-06-10T05:19:31;13.85;;;10.32;;
48524;SDS011;34316;51.514;-0.178;2023-06-10T05:21:33;17.55;;;9.52;;
48524;SDS011;34316;51.514;-0.178;2023-06-10T05:23:35;10.52;;;9.27;;
48524;SDS011;34316;51.514;-0.178;2023-06-10T05:25:36;16.40;;;9.45;;
48524;SDS011;34316;51.514;-0.178;2023-06-10T05:27:38;14.50;;;9.95;;
48524;SDS011;34316;51.514;-0.178;2023-06-10T05:29:41;17.05;;;9.93;;
48524;SDS011;34316;51.514;-0.178;2023-06-10T05:31:43;14.70;;;9.65;;
48524;SDS011;34316;51.514;-0.178;2023-06-10T05:33:45;10.98;;;9.63;;
48524;SDS011;34316;51.514;-0.178;2023-06-10T05:35:46;16.30;;;9.93;;
48524;SDS011;34316;51.514;-0.178;2023-06-10T05:37:48;12.77;;;9.55;;
48524;SDS011;34316;51.514;-0.178;2023-06-10T05:39:50;11.30;;;9.75;;
48524;SDS011;34316;51.514;-0.178;2023-06-10T05:41:51;13.80;;;9.90;;
48524;SDS011;34316;51.514;-0.178;2023-06-10T05:43:53;12.77;;;10.10;;
48524;SDS011;34316;51.514;-0.178;2023-06-10T05:45:55;14.80;;;9.10;;
48524;SDS011;34316;51.514;-0.178;2023-06-10T05:47:56;11.00;;;8.45;;
48524;SDS011;34316;51.514;-0.178;2023-06-10T05:49:58;14.45;;;7.97;;
48524;SDS011;34316;51.514;-0.178;2023-06-10T05:52:00;10.68;;;7.35;;
48524;SDS011;34316;51.514;-0.178;2023-06-10T05:54:02;10.57;;;7.90;;
48524;SDS011;34316;51.514;-0.178;2023-06-10T05:56:04;9.00;;;7.75;;
48524;SDS011;34316;51.514;-0.178;2023-06-10T05:58:06;11.10;;;7.28;;
48524;SDS011;34316;51.514;-0.178;2023-06-10T06:00:07;13.65;;;7.40;;
48524;SDS011;34316;51.514;-0.178;2023-06-10T06:02:10;8.03;;;6.00;;
48524;SDS011;34316;51.514;-0.178;2023-06-10T06:04:12;9.93;;;6.82;;
48524;SDS011;34316;51.514;-0.178;2023-06-10T06:06:14;9.75;;;6.25;;
48524;SDS011;34316;51.514;-0.178;2023-06-10T06:08:16;9.73;;;6.20;;
48524;SDS011;34316;51.514;-0.178;2023-06-10T06:10:19;9.32;;;6.00;;
48524;SDS011;34316;51.514;-0.178;2023-06-10T06:12:21;12.20;;;5.95;;
48524;SDS011;34316;51.514;-0.178;2023-06-10T06:14:23;11.02;;;5.85;;
48524;SDS011;34316;51.514;-0.178;2023-06-10T06:16:25;6.70;;;5.25;;
48524;SDS011;34316;51.514;-0.178;2023-06-10T06:18:26;10.18;;;5.60;;
48524;SDS011;34316;51.514;-0.178;2023-06-10T06:20:28;9.88;;;5.82;;
48524;SDS011;34316;51.514;-0.178;2023-06-10T06:22:30;8.85;;;6.15;;
48524;SDS011;34316;51.514;-0.178;2023-06-10T06:24:31;11.68;;;6.60;;
48524;SDS011;34316;51.514;-0.178;2023-06-10T06:26:33;8.93;;;6.00;;
48524;SDS011;34316;51.514;-0.178;2023-06-10T06:28:35;12.63;;;5.70;;
48524;SDS011;34316;51.514;-0.178;2023-06-10T06:30:37;9.75;;;6.35;;
48524;SDS011;34316;51.514;-0.178;2023-06-10T06:32:39;12.20;;;7.18;;
48524;SDS011;34316;51.514;-0.178;2023-06-10T06:34:41;11.68;;;7.32;;
48524;SDS011;34316;51.514;-0.178;2023-06-10T06:36:42;10.50;;;7.45;;
48524;SDS011;34316;51.514;-0.178;2023-06-10T06:38:44;11.07;;;7.80;;
48524;SDS011;34316;51.514;-0.178;2023-06-10T06:40:46;11.15;;;7.00;;
48524;SDS011;34316;51.514;-0.178;2023-06-10T06:42:47;14.40;;;7.78;;
48524;SDS011;34316;51.514;-0.178;2023-06-10T06:44:49;8.80;;;6.40;;
48524;SDS011;34316;51.514;-0.178;2023-06-10T06:46:51;11.02;;;7.95;;
48524;SDS011;34316;51.514;-0.178;2023-06-10T06:48:53;12.23;;;6.65;;
48524;SDS011;34316;51.514;-0.178;2023-06-10T06:50:54;14.57;;;6.63;;
48524;SDS011;34316;51.514;-0.178;2023-06-10T06:52:57;15.83;;;7.80;;
48524;SDS011;34316;51.514;-0.178;2023-06-10T06:54:59;9.35;;;6.10;;
48524;SDS011;34316;51.514;-0.178;2023-06-10T06:57:01;11.15;;;5.93;;
48524;SDS011;34316;51.514;-0.178;2023-06-10T06:59:03;7.63;;;5.72;;
48524;SDS011;34316;51.514;-0.178;2023-06-10T07:01:06;10.07;;;5.30;;
48524;SDS011;34316;51.514;-0.178;2023-06-10T07:03:07;8.05;;;5.60;;
48524;SDS011;34316;51.514;-0.178;2023-06-10T07:05:09;9.57;;;5.22;;
48524;SDS011;34316;51.514;-0.178;2023-06-10T07:07:12;11.30;;;5.30;;
48524;SDS011;34316;51.514;-0.178;2023-06-10T07:09:13;9.45;;;6.00;;
48524;SDS011;34316;51.514;-0.178;2023-06-10T07:11:15;15.57;;;7.40;;
48524;SDS011;34316;51.514;-0.178;2023-06-10T07:13:19;9.45;;;5.90;;
48524;SDS011;34316;51.514;-0.178;2023-06-10T07:15:20;12.32;;;7.63;;
48524;SDS011;34316;51.514;-0.178;2023-06-10T07:17:22;13.55;;;9.02;;
48524;SDS011;34316;51.514;-0.178;2023-06-10T07:19:24;9.63;;;5.90;;
48524;SDS011;34316;51.514;-0.178;2023-06-10T07:21:26;10.70;;;5.53;;
48524;SDS011;34316;51.514;-0.178;2023-06-10T07:23:29;10.45;;;5.00;;
48524;SDS011;34316;51.514;-0.178;2023-06-10T07:25:31;7.28;;;4.95;;
48524;SDS011;34316;51.514;-0.178;2023-06-10T07:27:33;5.97;;;4.60;;
48524;SDS011;34316;51.514;-0.178;2023-06-10T07:29:34;6.28;;;4.78;;
48524;SDS011;34316;51.514;-0.178;2023-06-10T07:31:37;16.60;;;9.57;;
48524;SDS011;34316;51.514;-0.178;2023-06-10T07:33:39;13.55;;;9.05;;
48524;SDS011;34316;51.514;-0.178;2023-06-10T07:35:40;8.75;;;6.80;;
48524;SDS011;34316;51.514;-0.178;2023-06-10T07:39:45;8.10;;;6.20;;
48524;SDS011;34316;51.514;-0.178;2023-06-10T07:41:47;9.15;;;6.07;;
48524;SDS011;34316;51.514;-0.178;2023-06-10T07:43:52;8.35;;;5.15;;
48524;SDS011;34316;51.514;-0.178;2023-06-10T07:45:55;7.30;;;4.28;;
48524;SDS011;34316;51.514;-0.178;2023-06-10T07:47:57;7.10;;;5.00;;
48524;SDS011;34316;51.514;-0.178;2023-06-10T07:49:59;7.32;;;4.65;;
48524;SDS011;34316;51.514;-0.178;2023-06-10T07:52:01;7.18;;;5.03;;
48524;SDS011;34316;51.514;-0.178;2023-06-10T07:54:03;9.15;;;4.82;;
48524;SDS011;34316;51.514;-0.178;2023-06-10T07:56:05;6.53;;;4.93;;
48524;SDS011;34316;51.514;-0.178;2023-06-10T07:58:06;6.82;;;4.80;;
48524;SDS011;34316;51.514;-0.178;2023-06-10T08:00:08;8.43;;;4.78;;
48524;SDS011;34316;51.514;-0.178;2023-06-10T08:02:10;8.88;;;4.57;;
48524;SDS011;34316;51.514;-0.178;2023-06-10T08:04:12;10.20;;;4.40;;
48524;SDS011;34316;51.514;-0.178;2023-06-10T08:06:14;8.00;;;4.40;;
48524;SDS011;34316;51.514;-0.178;2023-06-10T08:08:15;8.32;;;4.30;;
48524;SDS011;34316;51.514;-0.178;2023-06-10T08:10:17;6.03;;;3.88;;
48524;SDS011;34316;51.514;-0.178;2023-06-10T08:12:19;6.22;;;4.30;;
48524;SDS011;34316;51.514;-0.178;2023-06-10T08:14:21;5.25;;;4.03;;
48524;SDS011;34316;51.514;-0.178;2023-06-10T08:16:23;6.20;;;4.13;;
48524;SDS011;34316;51.514;-0.178;2023-06-10T08:18:25;6.53;;;3.75;;
48524;SDS011;34316;51.514;-0.178;2023-06-10T08:20:26;6.00;;;4.25;;
48524;SDS011;34316;51.514;-0.178;2023-06-10T08:22:28;8.85;;;4.95;;
48524;SDS011;34316;51.514;-0.178;2023-06-10T08:24:30;7.88;;;5.60;;
48524;SDS011;34316;51.514;-0.178;2023-06-10T08:26:32;10.20;;;5.88;;
48524;SDS011;34316;51.514;-0.178;2023-06-10T08:28:34;7.40;;;4.57;;
48524;SDS011;34316;51.514;-0.178;2023-06-10T08:30:36;8.82;;;5.10;;
48524;SDS011;34316;51.514;-0.178;2023-06-10T08:32:38;11.18;;;6.68;;
48524;SDS011;34316;51.514;-0.178;2023-06-10T08:34:40;8.15;;;5.45;;
48524;SDS011;34316;51.514;-0.178;2023-06-10T08:36:42;7.22;;;4.40;;
48524;SDS011;34316;51.514;-0.178;2023-06-10T08:38:44;6.00;;;4.43;;
48524;SDS011;34316;51.514;-0.178;2023-06-10T08:40:46;6.78;;;4.05;;
48524;SDS011;34316;51.514;-0.178;2023-06-10T08:44:53;8.30;;;4.07;;
48524;SDS011;34316;51.514;-0.178;2023-06-10T08:46:59;6.75;;;4.75;;
48524;SDS011;34316;51.514;-0.178;2023-06-10T08:49:02;6.60;;;4.63;;
48524;SDS011;34316;51.514;-0.178;2023-06-10T08:51:06;6.50;;;4.43;;
48524;SDS011;34316;51.514;-0.178;2023-06-10T08:53:11;8.80;;;4.35;;
48524;SDS011;34316;51.514;-0.178;2023-06-10T08:55:18;5.55;;;3.90;;
48524;SDS011;34316;51.514;-0.178;2023-06-10T08:57:23;5.82;;;4.30;;
48524;SDS011;34316;51.514;-0.178;2023-06-10T08:59:26;7.85;;;4.30;;
48524;SDS011;34316;51.514;-0.178;2023-06-10T09:01:28;6.95;;;4.05;;
48524;SDS011;34316;51.514;-0.178;2023-06-10T09:03:30;8.90;;;4.50;;
48524;SDS011;34316;51.514;-0.178;2023-06-10T09:05:33;8.05;;;4.70;;
48524;SDS011;34316;51.514;-0.178;2023-06-10T09:07:35;7.90;;;4.90;;
48524;SDS011;34316;51.514;-0.178;2023-06-10T09:09:38;5.50;;;4.65;;
48524;SDS011;34316;51.514;-0.178;2023-06-10T09:11:43;8.80;;;4.85;;
48524;SDS011;34316;51.514;-0.178;2023-06-10T09:13:44;9.30;;;4.75;;
48524;SDS011;34316;51.514;-0.178;2023-06-10T09:15:46;6.78;;;4.60;;
48524;SDS011;34316;51.514;-0.178;2023-06-10T09:17:50;6.45;;;4.32;;
48524;SDS011;34316;51.514;-0.178;2023-06-10T09:19:53;7.40;;;3.92;;
48524;SDS011;34316;51.514;-0.178;2023-06-10T09:21:58;9.85;;;4.38;;
48524;SDS011;34316;51.514;-0.178;2023-06-10T09:24:00;7.68;;;4.20;;
48524;SDS011;34316;51.514;-0.178;2023-06-10T09:26:02;5.80;;;4.72;;
48524;SDS011;34316;51.514;-0.178;2023-06-10T09:28:14;6.57;;;4.28;;
48524;SDS011;34316;51.514;-0.178;2023-06-10T09:30:32;8.52;;;4.07;;
48524;SDS011;34316;51.514;-0.178;2023-06-10T09:32:38;7.38;;;3.95;;
48524;SDS011;34316;51.514;-0.178;2023-06-10T09:34:40;7.07;;;3.92;;
48524;SDS011;34316;51.514;-0.178;2023-06-10T09:36:42;5.23;;;4.07;;
48524;SDS011;34316;51.514;-0.178;2023-06-10T09:38:44;5.35;;;3.72;;
48524;SDS011;34316;51.514;-0.178;2023-06-10T09:40:50;7.35;;;3.92;;
48524;SDS011;34316;51.514;-0.178;2023-06-10T09:42:53;7.53;;;4.07;;
48524;SDS011;34316;51.514;-0.178;2023-06-10T09:45:00;5.05;;;3.67;;
48524;SDS011;34316;51.514;-0.178;2023-06-10T09:47:02;6.60;;;3.95;;
48524;SDS011;34316;51.514;-0.178;2023-06-10T09:49:04;5.70;;;3.80;;
48524;SDS011;34316;51.514;-0.178;2023-06-10T09:51:08;6.70;;;4.30;;
48524;SDS011;34316;51.514;-0.178;2023-06-10T09:53:10;8.15;;;4.40;;
48524;SDS011;34316;51.514;-0.178;2023-06-10T09:55:12;5.57;;;3.40;;
48524;SDS011;34316;51.514;-0.178;2023-06-10T09:57:14;8.35;;;4.10;;
48524;SDS011;34316;51.514;-0.178;2023-06-10T09:59:28;5.03;;;4.18;;
48524;SDS011;34316;51.514;-0.178;2023-06-10T10:01:34;11.55;;;4.22;;
48524;SDS011;34316;51.514;-0.178;2023-06-10T10:05:59;9.15;;;4.53;;
48524;SDS011;34316;51.514;-0.178;2023-06-10T10:08:02;6.85;;;4.50;;
48524;SDS011;34316;51.514;-0.178;2023-06-10T10:10:03;7.53;;;4.50;;
48524;SDS011;34316;51.514;-0.178;2023-06-10T10:12:09;14.80;;;7.47;;
48524;SDS011;34316;51.514;-0.178;2023-06-10T10:14:12;9.98;;;5.68;;
48524;SDS011;34316;51.514;-0.178;2023-06-10T10:16:16;4.82;;;3.90;;
48524;SDS011;34316;51.514;-0.178;2023-06-10T10:18:19;7.85;;;4.03;;
48524;SDS011;34316;51.514;-0.178;2023-06-10T10:20:27;9.95;;;4.40;;
48524;SDS011;34316;51.514;-0.178;2023-06-10T10:22:41;9.65;;;5.20;;
48524;SDS011;34316;51.514;-0.178;2023-06-10T10:24:55;5.25;;;3.95;;
48524;SDS011;34316;51.514;-0.178;2023-06-10T10:26:59;4.18;;;3.38;;
48524;SDS011;34316;51.514;-0.178;2023-06-10T10:29:16;4.88;;;3.30;;
48524;SDS011;34316;51.514;-0.178;2023-06-10T10:31:20;6.20;;;3.42;;
48524;SDS011;34316;51.514;-0.178;2023-06-10T10:33:24;5.00;;;3.53;;
48524;SDS011;34316;51.514;-0.178;2023-06-10T10:35:33;7.18;;;3.72;;
48524;SDS011;34316;51.514;-0.178;2023-06-10T10:37:35;6.72;;;3.40;;
48524;SDS011;34316;51.514;-0.178;2023-06-10T10:39:37;4.75;;;2.90;;
48524;SDS011;34316;51.514;-0.178;2023-06-10T10:41:39;8.23;;;3.10;;
48524;SDS011;34316;51.514;-0.178;2023-06-10T10:43:42;4.40;;;3.30;;
48524;SDS011;34316;51.514;-0.178;2023-06-10T10:48:09;4.25;;;2.83;;
48524;SDS011;34316;51.514;-0.178;2023-06-10T10:50:17;4.25;;;2.70;;
48524;SDS011;34316;51.514;-0.178;2023-06-10T10:52:20;3.85;;;2.97;;
48524;SDS011;34316;51.514;-0.178;2023-06-10T10:54:38;5.75;;;3.53;;
48524;SDS011;34316;51.514;-0.178;2023-06-10T10:57:30;4.85;;;3.40;;
48524;SDS011;34316;51.514;-0.178;2023-06-10T10:59:13;6.20;;;3.70;;
48524;SDS011;34316;51.514;-0.178;2023-06-10T11:01:15;4.82;;;3.35;;
48524;SDS011;34316;51.514;-0.178;2023-06-10T11:03:17;5.63;;;3.17;;
48524;SDS011;34316;51.514;-0.178;2023-06-10T11:05:30;5.88;;;3.47;;
48524;SDS011;34316;51.514;-0.178;2023-06-10T11:07:52;5.55;;;3.20;;
48524;SDS011;34316;51.514;-0.178;2023-06-10T11:09:58;4.07;;;2.95;;
48524;SDS011;34316;51.514;-0.178;2023-06-10T11:12:01;8.90;;;3.70;;
48524;SDS011;34316;51.514;-0.178;2023-06-10T11:16:07;8.25;;;3.33;;
48524;SDS011;34316;51.514;-0.178;2023-06-10T11:23:02;4.65;;;3.13;;
48524;SDS011;34316;51.514;-0.178;2023-06-10T11:25:04;4.53;;;3.50;;
48524;SDS011;34316;51.514;-0.178;2023-06-10T11:27:15;3.92;;;3.03;;
48524;SDS011;34316;51.514;-0.178;2023-06-10T11:29:18;4.40;;;3.17;;
48524;SDS011;34316;51.514;-0.178;2023-06-10T11:31:25;5.38;;;2.63;;
48524;SDS011;34316;51.514;-0.178;2023-06-10T11:33:30;6.75;;;3.33;;
48524;SDS011;34316;51.514;-0.178;2023-06-10T11:35:32;4.18;;;3.28;;
48524;SDS011;34316;51.514;-0.178;2023-06-10T11:37:34;5.25;;;3.17;;
48524;SDS011;34316;51.514;-0.178;2023-06-10T11:39:36;5.30;;;3.67;;
48524;SDS011;34316;51.514;-0.178;2023-06-10T11:41:38;4.53;;;3.80;;
48524;SDS011;34316;51.514;-0.178;2023-06-10T11:43:42;6.87;;;3.80;;
48524;SDS011;34316;51.514;-0.178;2023-06-10T11:45:45;6.75;;;3.95;;
48524;SDS011;34316;51.514;-0.178;2023-06-10T11:47:58;6.43;;;3.92;;
48524;SDS011;34316;51.514;-0.178;2023-06-10T11:50:01;10.05;;;4.13;;
48524;SDS011;34316;51.514;-0.178;2023-06-10T11:52:04;6.18;;;4.53;;
48524;SDS011;34316;51.514;-0.178;2023-06-10T11:54:08;7.38;;;3.65;;
48524;SDS011;34316;51.514;-0.178;2023-06-10T11:56:10;10.52;;;5.50;;
48524;SDS011;34316;51.514;-0.178;2023-06-10T11:58:21;6.28;;;4.47;;
48524;SDS011;34316;51.514;-0.178;2023-06-10T12:00:23;6.32;;;4.30;;
48524;SDS011;34316;51.514;-0.178;2023-06-10T12:02:26;6.18;;;3.97;;
48524;SDS011;34316;51.514;-0.178;2023-06-10T12:04:27;10.55;;;4.07;;
48524;SDS011;34316;51.514;-0.178;2023-06-10T12:06:39;6.32;;;4.15;;
48524;SDS011;34316;51.514;-0.178;2023-06-10T12:08:41;7.25;;;3.72;;
48524;SDS011;34316;51.514;-0.178;2023-06-10T12:10:44;6.35;;;3.72;;
48524;SDS011;34316;51.514;-0.178;2023-06-10T12:12:46;7.93;;;3.72;;
48524;SDS011;34316;51.514;-0.178;2023-06-10T12:17:00;5.13;;;3.83;;
48524;SDS011;34316;51.514;-0.178;2023-06-10T12:19:02;5.43;;;3.85;;
48524;SDS011;34316;51.514;-0.178;2023-06-10T12:21:22;5.97;;;3.60;;
48524;SDS011;34316;51.514;-0.178;2023-06-10T12:23:25;18.58;;;5.57;;
48524;SDS011;34316;51.514;-0.178;2023-06-10T12:25:27;6.88;;;3.60;;
48524;SDS011;34316;51.514;-0.178;2023-06-10T12:27:30;5.07;;;3.60;;
48524;SDS011;34316;51.514;-0.178;2023-06-10T12:29:33;7.22;;;4.05;;
48524;SDS011;34316;51.514;-0.178;2023-06-10T12:31:51;18.60;;;5.93;;
48524;SDS011;34316;51.514;-0.178;2023-06-10T12:34:14;7.93;;;3.80;;
48524;SDS011;34316;51.514;-0.178;2023-06-10T12:36:16;11.75;;;5.13;;
48524;SDS011;34316;51.514;-0.178;2023-06-10T12:38:22;6.20;;;3.83;;
48524;SDS011;34316;51.514;-0.178;2023-06-10T12:40:33;5.13;;;3.22;;
48524;SDS011;34316;51.514;-0.178;2023-06-10T12:42:36;5.38;;;3.38;;
48524;SDS011;34316;51.514;-0.178;2023-06-10T12:44:39;15.70;;;3.90;;
48524;SDS011;34316;51.514;-0.178;2023-06-10T12:46:42;11.80;;;3.30;;
48524;SDS011;34316;51.514;-0.178;2023-06-10T12:48:50;4.32;;;2.97;;
48524;SDS011;34316;51.514;-0.178;2023-06-10T12:50:57;4.90;;;3.70;;
48524;SDS011;34316;51.514;-0.178;2023-06-10T12:52:59;6.28;;;3.75;;
48524;SDS011;34316;51.514;-0.178;2023-06-10T12:55:01;4.50;;;3.40;;
48524;SDS011;34316;51.514;-0.178;2023-06-10T12:57:05;4.95;;;3.33;;
48524;SDS011;34316;51.514;-0.178;2023-06-10T12:59:07;5.03;;;3.60;;
48524;SDS011;34316;51.514;-0.178;2023-06-10T13:01:09;7.40;;;3.70;;
48524;SDS011;34316;51.514;-0.178;2023-06-10T13:03:11;4.80;;;3.38;;
48524;SDS011;34316;51.514;-0.178;2023-06-10T13:05:14;4.82;;;3.22;;
48524;SDS011;34316;51.514;-0.178;2023-06-10T13:07:17;6.05;;;3.40;;
48524;SDS011;34316;51.514;-0.178;2023-06-10T13:09:19;6.22;;;3.40;;
48524;SDS011;34316;51.514;-0.178;2023-06-10T13:11:21;5.35;;;3.70;;
48524;SDS011;34316;51.514;-0.178;2023-06-10T13:13:25;5.95;;;3.80;;
48524;SDS011;34316;51.514;-0.178;2023-06-10T13:15:27;4.22;;;3.83;;
48524;SDS011;34316;51.514;-0.178;2023-06-10T13:17:28;5.13;;;3.38;;
48524;SDS011;34316;51.514;-0.178;2023-06-10T13:19:30;9.43;;;4.05;;
48524;SDS011;34316;51.514;-0.178;2023-06-10T13:21:33;13.82;;;4.65;;
48524;SDS011;34316;51.514;-0.178;2023-06-10T13:23:35;8.35;;;4.30;;
48524;SDS011;34316;51.514;-0.178;2023-06-10T13:25:37;12.23;;;4.60;;
48524;SDS011;34316;51.514;-0.178;2023-06-10T13:27:39;13.73;;;5.00;;
48524;SDS011;34316;51.514;-0.178;2023-06-10T13:29:40;8.20;;;4.25;;
48524;SDS011;34316;51.514;-0.178;2023-06-10T13:31:42;13.75;;;5.05;;
48524;SDS011;34316;51.514;-0.178;2023-06-10T13:33:44;7.35;;;4.75;;
48524;SDS011;34316;51.514;-0.178;2023-06-10T13:35:46;12.82;;;5.45;;
48524;SDS011;34316;51.514;-0.178;2023-06-10T13:37:48;12.80;;;6.28;;
48524;SDS011;34316;51.514;-0.178;2023-06-10T13:39:49;15.50;;;8.95;;
48524;SDS011;34316;51.514;-0.178;2023-06-10T13:41:52;9.95;;;4.47;;
48524;SDS011;34316;51.514;-0.178;2023-06-10T13:43:54;7.10;;;4.05;;
48524;SDS011;34316;51.514;-0.178;2023-06-10T13:45:56;6.18;;;4.25;;
48524;SDS011;34316;51.514;-0.178;2023-06-10T13:47:58;9.90;;;4.45;;
48524;SDS011;34316;51.514;-0.178;2023-06-10T13:49:59;5.47;;;4.30;;
48524;SDS011;34316;51.514;-0.178;2023-06-10T13:52:02;7.70;;;4.30;;
48524;SDS011;34316;51.514;-0.178;2023-06-10T13:54:04;8.85;;;4.53;;
48524;SDS011;34316;51.514;-0.178;2023-06-10T13:56:05;6.75;;;3.88;;
48524;SDS011;34316;51.514;-0.178;2023-06-10T13:58:08;5.78;;;3.88;;
48524;SDS011;34316;51.514;-0.178;2023-06-10T14:00:10;7.07;;;4.45;;
48524;SDS011;34316;51.514;-0.178;2023-06-10T14:02:12;7.68;;;3.92;;
48524;SDS011;34316;51.514;-0.178;2023-06-10T14:04:14;5.25;;;4.32;;
48524;SDS011;34316;51.514;-0.178;2023-06-10T14:06:16;6.00;;;4.43;;
48524;SDS011;34316;51.514;-0.178;2023-06-10T14:08:20;9.60;;;4.15;;
48524;SDS011;34316;51.514;-0.178;2023-06-10T14:10:22;8.48;;;4.50;;
48524;SDS011;34316;51.514;-0.178;2023-06-10T14:12:24;7.20;;;4.53;;
48524;SDS011;34316;51.514;-0.178;2023-06-10T14:14:26;7.45;;;4.32;;
48524;SDS011;34316;51.514;-0.178;2023-06-10T14:16:27;6.38;;;4.20;;
48524;SDS011;34316;51.514;-0.178;2023-06-10T14:18:30;8.93;;;4.13;;
48524;SDS011;34316;51.514;-0.178;2023-06-10T14:20:31;6.57;;;4.25;;
48524;SDS011;34316;51.514;-0.178;2023-06-10T14:22:33;5.30;;;4.25;;
48524;SDS011;34316;51.514;-0.178;2023-06-10T14:24:35;7.22;;;4.40;;
48524;SDS011;34316;51.514;-0.178;2023-06-10T14:26:37;5.47;;;4.10;;
48524;SDS011;34316;51.514;-0.178;2023-06-10T14:28:39;5.75;;;4.28;;
48524;SDS011;34316;51.514;-0.178;2023-06-10T14:30:41;4.93;;;3.70;;
48524;SDS011;34316;51.514;-0.178;2023-06-10T14:32:42;5.45;;;3.85;;
48524;SDS011;34316;51.514;-0.178;2023-06-10T14:34:44;5.13;;;4.32;;
48524;SDS011;34316;51.514;-0.178;2023-06-10T14:38:50;5.00;;;3.80;;
48524;SDS011;34316;51.514;-0.178;2023-06-10T14:40:52;4.50;;;3.70;;
48524;SDS011;34316;51.514;-0.178;2023-06-10T14:42:54;6.82;;;4.68;;
48524;SDS011;34316;51.514;-0.178;2023-06-10T14:44:56;14.70;;;4.35;;
48524;SDS011;34316;51.514;-0.178;2023-06-10T14:46:58;6.32;;;3.90;;
48524;SDS011;34316;51.514;-0.178;2023-06-10T14:49:00;5.60;;;3.67;;
48524;SDS011;34316;51.514;-0.178;2023-06-10T14:51:03;6.55;;;3.55;;
48524;SDS011;34316;51.514;-0.178;2023-06-10T14:53:05;5.45;;;3.60;;
48524;SDS011;34316;51.514;-0.178;2023-06-10T14:55:07;6.82;;;3.40;;
48524;SDS011;34316;51.514;-0.178;2023-06-10T14:57:09;5.68;;;4.43;;
48524;SDS011;34316;51.514;-0.178;2023-06-10T14:59:11;4.55;;;3.50;;
48524;SDS011;34316;51.514;-0.178;2023-06-10T15:01:13;6.03;;;3.78;;
48524;SDS011;34316;51.514;-0.178;2023-06-10T15:03:15;5.53;;;3.83;;
48524;SDS011;34316;51.514;-0.178;2023-06-10T15:05:17;5.72;;;3.75;;
48524;SDS011;34316;51.514;-0.178;2023-06-10T15:09:22;4.75;;;3.85;;
48524;SDS011;34316;51.514;-0.178;2023-06-10T15:11:24;7.13;;;3.92;;
48524;SDS011;34316;51.514;-0.178;2023-06-10T15:13:25;6.30;;;3.65;;
48524;SDS011;34316;51.514;-0.178;2023-06-10T15:15:27;5.53;;;4.05;;
48524;SDS011;34316;51.514;-0.178;2023-06-10T15:17:29;11.13;;;7.85;;
48524;SDS011;34316;51.514;-0.178;2023-06-10T15:19:31;5.00;;;3.22;;
48524;SDS011;34316;51.514;-0.178;2023-06-10T15:21:32;7.72;;;4.15;;
48524;SDS011;34316;51.514;-0.178;2023-06-10T15:23:34;8.02;;;3.60;;
48524;SDS011;34316;51.514;-0.178;2023-06-10T15:25:36;4.35;;;3.63;;
48524;SDS011;34316;51.514;-0.178;2023-06-10T15:27:39;5.07;;;3.72;;
48524;SDS011;34316;51.514;-0.178;2023-06-10T15:29:40;6.95;;;3.88;;
48524;SDS011;34316;51.514;-0.178;2023-06-10T15:31:42;4.53;;;3.75;;
48524;SDS011;34316;51.514;-0.178;2023-06-10T15:33:44;4.80;;;3.60;;
48524;SDS011;34316;51.514;-0.178;2023-06-10T15:35:48;4.25;;;3.20;;
48524;SDS011;34316;51.514;-0.178;2023-06-10T15:37:49;8.60;;;5.70;;
48524;SDS011;34316;51.514;-0.178;2023-06-10T15:39:51;7.20;;;4.70;;
48524;SDS011;34316;51.514;-0.178;2023-06-10T15:41:53;5.30;;;3.90;;
48524;SDS011;34316;51.514;-0.178;2023-06-10T15:43:55;6.88;;;3.80;;
48524;SDS011;34316;51.514;-0.178;2023-06-10T15:45:57;9.80;;;4.72;;
48524;SDS011;34316;51.514;-0.178;2023-06-10T15:47:59;4.75;;;3.80;;